sensor_id;sensor_type;location;lat;lon;timestamp;temperature;humidity
79716;DHT22;69209;51.420;5.400;2023-05-07T00:01:58;18.00;85.30
79716;DHT22;69209;51.420;5.400;2023-05-07T00:04:24;18.00;85.40
79716;DHT22;69209;51.420;5.400;2023-05-07T00:06:49;18.00;85.30
79716;DHT22;69209;51.420;5.400;2023-05-07T00:09:15;18.00;85.30
79716;DHT22;69209;51.420;5.400;2023-05-07T00:11:41;18.00;85.30
79716;DHT22;69209;51.420;5.400;2023-05-07T00:14:07;18.00;85.30
79716;DHT22;69209;51.420;5.400;2023-05-07T00:16:32;18.00;85.20
79716;DHT22;69209;51.420;5.400;2023-05-07T00:18:58;18.00;85.30
79716;DHT22;69209;51.420;5.400;2023-05-07T00:21:23;18.00;85.40
79716;DHT22;69209;51.420;5.400;2023-05-07T00:23:52;17.90;85.30
79716;DHT22;69209;51.420;5.400;2023-05-07T00:26:17;18.00;85.30
79716;DHT22;69209;51.420;5.400;2023-05-07T00:28:43;17.90;85.30
79716;DHT22;69209;51.420;5.400;2023-05-07T00:31:08;18.00;85.40
79716;DHT22;69209;51.420;5.400;2023-05-07T00:33:34;17.90;85.30
79716;DHT22;69209;51.420;5.400;2023-05-07T00:35:59;17.90;85.40
79716;DHT22;69209;51.420;5.400;2023-05-07T00:38:27;17.90;85.50
79716;DHT22;69209;51.420;5.400;2023-05-07T00:40:52;17.90;85.60
79716;DHT22;69209;51.420;5.400;2023-05-07T00:43:18;17.90;85.60
79716;DHT22;69209;51.420;5.400;2023-05-07T00:45:43;17.90;85.60
79716;DHT22;69209;51.420;5.400;2023-05-07T00:48:09;17.80;85.50
79716;DHT22;69209;51.420;5.400;2023-05-07T00:50:34;17.90;85.50
79716;DHT22;69209;51.420;5.400;2023-05-07T00:53:00;17.90;85.50
79716;DHT22;69209;51.420;5.400;2023-05-07T00:55:25;17.90;85.60
79716;DHT22;69209;51.420;5.400;2023-05-07T00:57:51;17.80;85.50
79716;DHT22;69209;51.420;5.400;2023-05-07T01:00:17;17.80;85.60
79716;DHT22;69209;51.420;5.400;2023-05-07T01:02:43;17.80;85.60
79716;DHT22;69209;51.420;5.400;2023-05-07T01:05:09;17.90;85.70
79716;DHT22;69209;51.420;5.400;2023-05-07T01:07:35;17.80;85.60
79716;DHT22;69209;51.420;5.400;2023-05-07T01:10:01;17.80;85.70
79716;DHT22;69209;51.420;5.400;2023-05-07T01:12:27;17.80;85.60
79716;DHT22;69209;51.420;5.400;2023-05-07T01:14:53;17.80;85.60
79716;DHT22;69209;51.420;5.400;2023-05-07T01:17:19;17.80;85.70
79716;DHT22;69209;51.420;5.400;2023-05-07T01:19:45;17.80;85.70
79716;DHT22;69209;51.420;5.400;2023-05-07T01:22:10;17.80;85.70
79716;DHT22;69209;51.420;5.400;2023-05-07T01:24:37;17.80;85.70
79716;DHT22;69209;51.420;5.400;2023-05-07T01:27:03;17.80;85.80
79716;DHT22;69209;51.420;5.400;2023-05-07T01:29:28;17.80;85.90
79716;DHT22;69209;51.420;5.400;2023-05-07T01:31:54;17.80;85.90
79716;DHT22;69209;51.420;5.400;2023-05-07T01:34:21;17.80;86.00
79716;DHT22;69209;51.420;5.400;2023-05-07T01:36:46;17.80;86.70
79716;DHT22;69209;51.420;5.400;2023-05-07T01:39:13;17.70;86.00
79716;DHT22;69209;51.420;5.400;2023-05-07T01:41:39;17.70;86.20
79716;DHT22;69209;51.420;5.400;2023-05-07T01:44:04;17.70;86.10
79716;DHT22;69209;51.420;5.400;2023-05-07T01:46:31;17.70;86.20
79716;DHT22;69209;51.420;5.400;2023-05-07T01:48:56;17.70;86.30
79716;DHT22;69209;51.420;5.400;2023-05-07T01:51:22;17.70;86.20
79716;DHT22;69209;51.420;5.400;2023-05-07T01:53:47;17.70;86.20
79716;DHT22;69209;51.420;5.400;2023-05-07T01:56:19;17.70;86.30
79716;DHT22;69209;51.420;5.400;2023-05-07T01:58:45;17.70;86.30
79716;DHT22;69209;51.420;5.400;2023-05-07T02:01:12;17.70;86.50
79716;DHT22;69209;51.420;5.400;2023-05-07T02:03:37;17.70;86.50
79716;DHT22;69209;51.420;5.400;2023-05-07T02:06:03;17.70;86.50
79716;DHT22;69209;51.420;5.400;2023-05-07T02:08:28;17.70;86.60
79716;DHT22;69209;51.420;5.400;2023-05-07T02:10:55;17.60;86.60
79716;DHT22;69209;51.420;5.400;2023-05-07T02:13:20;17.60;86.60
79716;DHT22;69209;51.420;5.400;2023-05-07T02:15:47;17.60;86.60
79716;DHT22;69209;51.420;5.400;2023-05-07T02:18:15;17.60;86.70
79716;DHT22;69209;51.420;5.400;2023-05-07T02:20:41;17.60;86.80
79716;DHT22;69209;51.420;5.400;2023-05-07T02:23:07;17.60;86.80
79716;DHT22;69209;51.420;5.400;2023-05-07T02:25:32;17.60;86.90
79716;DHT22;69209;51.420;5.400;2023-05-07T02:27:58;17.60;86.80
79716;DHT22;69209;51.420;5.400;2023-05-07T02:30:24;17.60;86.90
79716;DHT22;69209;51.420;5.400;2023-05-07T02:32:50;17.60;87.00
79716;DHT22;69209;51.420;5.400;2023-05-07T02:35:15;17.60;87.00
79716;DHT22;69209;51.420;5.400;2023-05-07T02:37:41;17.60;87.10
79716;DHT22;69209;51.420;5.400;2023-05-07T02:40:07;17.60;87.00
79716;DHT22;69209;51.420;5.400;2023-05-07T02:42:32;17.60;87.00
79716;DHT22;69209;51.420;5.400;2023-05-07T02:44:58;17.60;87.10
79716;DHT22;69209;51.420;5.400;2023-05-07T02:47:23;17.60;87.10
79716;DHT22;69209;51.420;5.400;2023-05-07T02:49:49;17.60;87.20
79716;DHT22;69209;51.420;5.400;2023-05-07T02:52:15;17.60;87.20
79716;DHT22;69209;51.420;5.400;2023-05-07T02:54:40;17.50;87.30
79716;DHT22;69209;51.420;5.400;2023-05-07T02:57:06;17.50;87.20
79716;DHT22;69209;51.420;5.400;2023-05-07T02:59:31;17.50;87.40
79716;DHT22;69209;51.420;5.400;2023-05-07T03:01:57;17.50;87.30
79716;DHT22;69209;51.420;5.400;2023-05-07T03:04:22;17.50;87.50
79716;DHT22;69209;51.420;5.400;2023-05-07T03:06:48;17.50;87.40
79716;DHT22;69209;51.420;5.400;2023-05-07T03:09:13;17.50;87.60
79716;DHT22;69209;51.420;5.400;2023-05-07T03:11:39;17.50;87.60
79716;DHT22;69209;51.420;5.400;2023-05-07T03:14:04;17.50;87.50
79716;DHT22;69209;51.420;5.400;2023-05-07T03:16:30;17.50;87.70
79716;DHT22;69209;51.420;5.400;2023-05-07T03:18:55;17.50;87.70
79716;DHT22;69209;51.420;5.400;2023-05-07T03:21:21;17.50;87.70
79716;DHT22;69209;51.420;5.400;2023-05-07T03:23:46;17.50;87.90
79716;DHT22;69209;51.420;5.400;2023-05-07T03:26:12;17.40;87.70
79716;DHT22;69209;51.420;5.400;2023-05-07T03:28:37;17.50;87.70
79716;DHT22;69209;51.420;5.400;2023-05-07T03:31:02;17.40;87.90
79716;DHT22;69209;51.420;5.400;2023-05-07T03:33:28;17.40;87.90
79716;DHT22;69209;51.420;5.400;2023-05-07T03:35:54;17.40;88.00
79716;DHT22;69209;51.420;5.400;2023-05-07T03:38:19;17.40;88.10
79716;DHT22;69209;51.420;5.400;2023-05-07T03:40:45;17.40;88.00
79716;DHT22;69209;51.420;5.400;2023-05-07T03:43:10;17.40;88.00
79716;DHT22;69209;51.420;5.400;2023-05-07T03:45:36;17.40;88.10
79716;DHT22;69209;51.420;5.400;2023-05-07T03:48:01;17.40;88.10
79716;DHT22;69209;51.420;5.400;2023-05-07T03:50:26;17.40;88.30
79716;DHT22;69209;51.420;5.400;2023-05-07T03:52:52;17.40;88.30
79716;DHT22;69209;51.420;5.400;2023-05-07T03:55:17;17.40;88.40
79716;DHT22;69209;51.420;5.400;2023-05-07T03:57:43;17.40;88.40
79716;DHT22;69209;51.420;5.400;2023-05-07T04:00:09;17.40;88.50
79716;DHT22;69209;51.420;5.400;2023-05-07T04:02:34;17.40;88.40
79716;DHT22;69209;51.420;5.400;2023-05-07T04:05:00;17.40;88.60
79716;DHT22;69209;51.420;5.400;2023-05-07T04:07:25;17.40;88.60
79716;DHT22;69209;51.420;5.400;2023-05-07T04:09:51;17.40;88.50
79716;DHT22;69209;51.420;5.400;2023-05-07T04:12:16;17.40;88.60
79716;DHT22;69209;51.420;5.400;2023-05-07T04:14:42;17.40;88.50
79716;DHT22;69209;51.420;5.400;2023-05-07T04:17:07;17.40;88.50
79716;DHT22;69209;51.420;5.400;2023-05-07T04:19:34;17.40;88.50
79716;DHT22;69209;51.420;5.400;2023-05-07T04:22:00;17.40;88.70
79716;DHT22;69209;51.420;5.400;2023-05-07T04:24:26;17.40;88.60
79716;DHT22;69209;51.420;5.400;2023-05-07T04:26:51;17.40;88.70
79716;DHT22;69209;51.420;5.400;2023-05-07T04:29:18;17.40;88.50
79716;DHT22;69209;51.420;5.400;2023-05-07T04:31:43;17.40;88.00
79716;DHT22;69209;51.420;5.400;2023-05-07T04:34:10;17.40;88.60
79716;DHT22;69209;51.420;5.400;2023-05-07T04:36:37;17.40;88.60
79716;DHT22;69209;51.420;5.400;2023-05-07T04:39:02;17.40;88.40
79716;DHT22;69209;51.420;5.400;2023-05-07T04:41:28;17.50;88.60
79716;DHT22;69209;51.420;5.400;2023-05-07T04:43:53;17.50;88.50
79716;DHT22;69209;51.420;5.400;2023-05-07T04:46:19;17.50;88.50
79716;DHT22;69209;51.420;5.400;2023-05-07T04:48:44;17.50;88.50
79716;DHT22;69209;51.420;5.400;2023-05-07T04:51:10;17.50;88.40
79716;DHT22;69209;51.420;5.400;2023-05-07T04:53:35;17.50;88.50
79716;DHT22;69209;51.420;5.400;2023-05-07T04:56:01;17.50;88.50
79716;DHT22;69209;51.420;5.400;2023-05-07T04:58:26;17.50;88.50
79716;DHT22;69209;51.420;5.400;2023-05-07T05:00:52;17.50;88.70
79716;DHT22;69209;51.420;5.400;2023-05-07T05:03:18;17.50;88.80
79716;DHT22;69209;51.420;5.400;2023-05-07T05:05:43;17.50;88.90
79716;DHT22;69209;51.420;5.400;2023-05-07T05:08:09;17.50;88.80
79716;DHT22;69209;51.420;5.400;2023-05-07T05:10:34;17.50;88.80
79716;DHT22;69209;51.420;5.400;2023-05-07T05:13:00;17.50;88.90
79716;DHT22;69209;51.420;5.400;2023-05-07T05:15:25;17.50;89.00
79716;DHT22;69209;51.420;5.400;2023-05-07T05:17:51;17.50;89.00
79716;DHT22;69209;51.420;5.400;2023-05-07T05:20:16;17.60;88.90
79716;DHT22;69209;51.420;5.400;2023-05-07T05:22:43;17.60;89.00
79716;DHT22;69209;51.420;5.400;2023-05-07T05:25:08;17.60;88.90
79716;DHT22;69209;51.420;5.400;2023-05-07T05:27:34;17.70;88.80
79716;DHT22;69209;51.420;5.400;2023-05-07T05:30:00;17.70;88.50
79716;DHT22;69209;51.420;5.400;2023-05-07T05:32:25;17.70;88.60
79716;DHT22;69209;51.420;5.400;2023-05-07T05:34:51;17.80;88.30
79716;DHT22;69209;51.420;5.400;2023-05-07T05:37:16;17.80;88.30
79716;DHT22;69209;51.420;5.400;2023-05-07T05:39:41;17.80;88.00
79716;DHT22;69209;51.420;5.400;2023-05-07T05:42:07;17.90;88.30
79716;DHT22;69209;51.420;5.400;2023-05-07T05:44:33;17.90;88.20
79716;DHT22;69209;51.420;5.400;2023-05-07T05:46:58;17.90;88.10
79716;DHT22;69209;51.420;5.400;2023-05-07T05:49:24;18.00;87.80
79716;DHT22;69209;51.420;5.400;2023-05-07T05:51:50;18.00;87.50
79716;DHT22;69209;51.420;5.400;2023-05-07T05:54:15;18.10;87.40
79716;DHT22;69209;51.420;5.400;2023-05-07T05:56:41;18.10;87.20
79716;DHT22;69209;51.420;5.400;2023-05-07T05:59:07;18.20;87.10
79716;DHT22;69209;51.420;5.400;2023-05-07T06:01:32;18.30;87.00
79716;DHT22;69209;51.420;5.400;2023-05-07T06:03:58;18.30;86.70
79716;DHT22;69209;51.420;5.400;2023-05-07T06:06:23;18.40;86.60
79716;DHT22;69209;51.420;5.400;2023-05-07T06:08:49;18.50;86.40
79716;DHT22;69209;51.420;5.400;2023-05-07T06:11:14;18.50;86.20
79716;DHT22;69209;51.420;5.400;2023-05-07T06:13:40;18.60;86.30
79716;DHT22;69209;51.420;5.400;2023-05-07T06:16:06;18.60;86.30
79716;DHT22;69209;51.420;5.400;2023-05-07T06:18:31;18.60;86.20
79716;DHT22;69209;51.420;5.400;2023-05-07T06:20:57;18.60;86.10
79716;DHT22;69209;51.420;5.400;2023-05-07T06:23:22;18.70;86.00
79716;DHT22;69209;51.420;5.400;2023-05-07T06:25:48;18.80;85.80
79716;DHT22;69209;51.420;5.400;2023-05-07T06:28:14;18.90;85.70
79716;DHT22;69209;51.420;5.400;2023-05-07T06:30:40;19.00;85.30
79716;DHT22;69209;51.420;5.400;2023-05-07T06:33:05;19.10;84.90
79716;DHT22;69209;51.420;5.400;2023-05-07T06:35:31;19.10;84.60
79716;DHT22;69209;51.420;5.400;2023-05-07T06:37:56;19.30;84.40
79716;DHT22;69209;51.420;5.400;2023-05-07T06:40:22;19.30;84.20
79716;DHT22;69209;51.420;5.400;2023-05-07T06:42:47;19.40;84.10
79716;DHT22;69209;51.420;5.400;2023-05-07T06:45:13;19.50;84.00
79716;DHT22;69209;51.420;5.400;2023-05-07T06:47:38;19.60;83.40
79716;DHT22;69209;51.420;5.400;2023-05-07T06:50:04;19.70;83.20
79716;DHT22;69209;51.420;5.400;2023-05-07T06:52:29;19.80;83.60
79716;DHT22;69209;51.420;5.400;2023-05-07T06:54:55;19.80;83.70
79716;DHT22;69209;51.420;5.400;2023-05-07T06:57:20;19.90;83.90
79716;DHT22;69209;51.420;5.400;2023-05-07T06:59:46;20.00;84.60
79716;DHT22;69209;51.420;5.400;2023-05-07T07:02:11;19.90;84.90
79716;DHT22;69209;51.420;5.400;2023-05-07T07:04:37;19.80;85.40
79716;DHT22;69209;51.420;5.400;2023-05-07T07:07:02;20.00;85.50
79716;DHT22;69209;51.420;5.400;2023-05-07T07:09:28;19.90;83.50
79716;DHT22;69209;51.420;5.400;2023-05-07T07:11:53;19.90;83.30
79716;DHT22;69209;51.420;5.400;2023-05-07T07:14:19;19.90;82.90
79716;DHT22;69209;51.420;5.400;2023-05-07T07:16:45;19.90;82.70
79716;DHT22;69209;51.420;5.400;2023-05-07T07:19:12;20.00;82.50
79716;DHT22;69209;51.420;5.400;2023-05-07T07:21:37;20.20;82.40
79716;DHT22;69209;51.420;5.400;2023-05-07T07:24:03;20.20;82.10
79716;DHT22;69209;51.420;5.400;2023-05-07T07:26:28;20.40;81.70
79716;DHT22;69209;51.420;5.400;2023-05-07T07:28:54;20.50;81.50
79716;DHT22;69209;51.420;5.400;2023-05-07T07:31:19;20.50;81.00
79716;DHT22;69209;51.420;5.400;2023-05-07T07:33:45;20.60;80.90
79716;DHT22;69209;51.420;5.400;2023-05-07T07:36:10;20.70;80.60
79716;DHT22;69209;51.420;5.400;2023-05-07T07:38:36;20.80;80.50
79716;DHT22;69209;51.420;5.400;2023-05-07T07:41:01;20.80;80.20
79716;DHT22;69209;51.420;5.400;2023-05-07T07:43:27;20.90;80.00
79716;DHT22;69209;51.420;5.400;2023-05-07T07:45:53;21.00;80.00
79716;DHT22;69209;51.420;5.400;2023-05-07T07:48:18;21.10;80.20
79716;DHT22;69209;51.420;5.400;2023-05-07T07:50:44;21.20;79.80
79716;DHT22;69209;51.420;5.400;2023-05-07T07:53:10;21.20;79.50
79716;DHT22;69209;51.420;5.400;2023-05-07T07:55:38;21.40;79.10
79716;DHT22;69209;51.420;5.400;2023-05-07T07:58:04;21.50;79.00
79716;DHT22;69209;51.420;5.400;2023-05-07T08:00:30;21.70;78.40
79716;DHT22;69209;51.420;5.400;2023-05-07T08:02:55;21.90;78.50
79716;DHT22;69209;51.420;5.400;2023-05-07T08:05:22;22.00;78.00
79716;DHT22;69209;51.420;5.400;2023-05-07T08:07:48;22.30;76.80
79716;DHT22;69209;51.420;5.400;2023-05-07T08:10:18;22.50;75.70
79716;DHT22;69209;51.420;5.400;2023-05-07T08:12:49;22.70;74.80
79716;DHT22;69209;51.420;5.400;2023-05-07T08:15:15;23.00;74.00
79716;DHT22;69209;51.420;5.400;2023-05-07T08:17:41;23.40;72.90
79716;DHT22;69209;51.420;5.400;2023-05-07T08:20:08;23.90;71.40
79716;DHT22;69209;51.420;5.400;2023-05-07T08:22:34;24.50;69.60
79716;DHT22;69209;51.420;5.400;2023-05-07T08:25:00;25.50;67.00
79716;DHT22;69209;51.420;5.400;2023-05-07T08:27:25;26.20;64.60
79716;DHT22;69209;51.420;5.400;2023-05-07T08:29:51;26.00;63.80
79716;DHT22;69209;51.420;5.400;2023-05-07T08:32:16;24.40;64.70
79716;DHT22;69209;51.420;5.400;2023-05-07T08:34:42;23.70;65.30
79716;DHT22;69209;51.420;5.400;2023-05-07T08:37:07;23.00;67.90
79716;DHT22;69209;51.420;5.400;2023-05-07T08:39:33;22.70;69.10
79716;DHT22;69209;51.420;5.400;2023-05-07T08:41:59;22.40;70.10
79716;DHT22;69209;51.420;5.400;2023-05-07T08:44:26;22.20;70.40
79716;DHT22;69209;51.420;5.400;2023-05-07T08:46:52;22.00;71.20
79716;DHT22;69209;51.420;5.400;2023-05-07T08:49:19;21.90;71.80
79716;DHT22;69209;51.420;5.400;2023-05-07T08:51:45;21.90;72.40
79716;DHT22;69209;51.420;5.400;2023-05-07T08:54:11;21.80;72.90
79716;DHT22;69209;51.420;5.400;2023-05-07T08:56:37;21.70;73.50
79716;DHT22;69209;51.420;5.400;2023-05-07T08:59:05;21.70;73.20
79716;DHT22;69209;51.420;5.400;2023-05-07T09:01:30;21.70;73.40
79716;DHT22;69209;51.420;5.400;2023-05-07T09:03:56;21.80;73.30
79716;DHT22;69209;51.420;5.400;2023-05-07T09:06:22;22.00;72.90
79716;DHT22;69209;51.420;5.400;2023-05-07T09:08:51;22.10;72.60
79716;DHT22;69209;51.420;5.400;2023-05-07T09:11:19;22.20;73.20
79716;DHT22;69209;51.420;5.400;2023-05-07T09:13:46;22.30;72.00
79716;DHT22;69209;51.420;5.400;2023-05-07T09:16:12;22.20;71.80
79716;DHT22;69209;51.420;5.400;2023-05-07T09:18:41;22.20;72.50
79716;DHT22;69209;51.420;5.400;2023-05-07T09:21:09;22.20;72.40
79716;DHT22;69209;51.420;5.400;2023-05-07T09:23:35;22.20;72.10
79716;DHT22;69209;51.420;5.400;2023-05-07T09:26:00;22.10;71.90
79716;DHT22;69209;51.420;5.400;2023-05-07T09:28:27;22.10;72.20
79716;DHT22;69209;51.420;5.400;2023-05-07T09:30:52;22.20;71.50
79716;DHT22;69209;51.420;5.400;2023-05-07T09:33:18;22.00;72.10
79716;DHT22;69209;51.420;5.400;2023-05-07T09:35:43;22.00;72.00
79716;DHT22;69209;51.420;5.400;2023-05-07T09:38:10;21.90;72.00
79716;DHT22;69209;51.420;5.400;2023-05-07T09:40:35;22.10;71.50
79716;DHT22;69209;51.420;5.400;2023-05-07T09:43:10;22.20;71.10
79716;DHT22;69209;51.420;5.400;2023-05-07T09:45:36;22.10;71.40
79716;DHT22;69209;51.420;5.400;2023-05-07T09:48:02;22.10;71.90
79716;DHT22;69209;51.420;5.400;2023-05-07T09:50:31;22.00;72.10
79716;DHT22;69209;51.420;5.400;2023-05-07T09:52:58;22.10;72.50
79716;DHT22;69209;51.420;5.400;2023-05-07T09:55:24;22.00;71.50
79716;DHT22;69209;51.420;5.400;2023-05-07T09:57:50;22.10;71.30
79716;DHT22;69209;51.420;5.400;2023-05-07T10:00:15;22.20;71.30
79716;DHT22;69209;51.420;5.400;2023-05-07T10:02:42;22.50;70.90
79716;DHT22;69209;51.420;5.400;2023-05-07T10:05:13;22.40;70.50
79716;DHT22;69209;51.420;5.400;2023-05-07T10:07:39;22.50;70.30
79716;DHT22;69209;51.420;5.400;2023-05-07T10:10:06;22.60;70.00
79716;DHT22;69209;51.420;5.400;2023-05-07T10:12:31;22.90;69.20
79716;DHT22;69209;51.420;5.400;2023-05-07T10:15:03;23.00;69.30
79716;DHT22;69209;51.420;5.400;2023-05-07T10:17:29;23.30;69.40
79716;DHT22;69209;51.420;5.400;2023-05-07T10:19:54;23.40;69.00
79716;DHT22;69209;51.420;5.400;2023-05-07T10:22:20;23.50;68.00
79716;DHT22;69209;51.420;5.400;2023-05-07T10:24:46;23.80;67.00
79716;DHT22;69209;51.420;5.400;2023-05-07T10:27:14;23.80;67.40
79716;DHT22;69209;51.420;5.400;2023-05-07T10:32:16;24.00;66.00
79716;DHT22;69209;51.420;5.400;2023-05-07T10:34:43;24.20;66.10
79716;DHT22;69209;51.420;5.400;2023-05-07T10:37:10;24.20;64.90
79716;DHT22;69209;51.420;5.400;2023-05-07T10:39:36;24.10;64.70
79716;DHT22;69209;51.420;5.400;2023-05-07T10:42:08;24.20;64.20
79716;DHT22;69209;51.420;5.400;2023-05-07T10:44:34;24.10;64.30
79716;DHT22;69209;51.420;5.400;2023-05-07T10:49:34;24.00;64.90
79716;DHT22;69209;51.420;5.400;2023-05-07T10:54:41;24.10;64.20
79716;DHT22;69209;51.420;5.400;2023-05-07T10:57:40;24.10;64.40
79716;DHT22;69209;51.420;5.400;2023-05-07T11:00:01;24.00;64.90
79716;DHT22;69209;51.420;5.400;2023-05-07T11:05:32;24.00;64.40
79716;DHT22;69209;51.420;5.400;2023-05-07T11:07:56;24.20;63.30
79716;DHT22;69209;51.420;5.400;2023-05-07T11:10:22;24.10;64.10
79716;DHT22;69209;51.420;5.400;2023-05-07T11:12:49;24.00;64.10
79716;DHT22;69209;51.420;5.400;2023-05-07T11:15:15;23.90;64.40
79716;DHT22;69209;51.420;5.400;2023-05-07T11:17:53;23.60;64.90
79716;DHT22;69209;51.420;5.400;2023-05-07T11:20:19;23.70;64.90
79716;DHT22;69209;51.420;5.400;2023-05-07T11:22:45;23.90;65.00
79716;DHT22;69209;51.420;5.400;2023-05-07T11:25:11;23.80;64.70
79716;DHT22;69209;51.420;5.400;2023-05-07T11:27:42;23.90;64.10
79716;DHT22;69209;51.420;5.400;2023-05-07T11:30:08;23.80;63.90
79716;DHT22;69209;51.420;5.400;2023-05-07T11:32:34;24.00;64.00
79716;DHT22;69209;51.420;5.400;2023-05-07T11:35:00;23.90;63.80
79716;DHT22;69209;51.420;5.400;2023-05-07T11:37:26;23.80;63.50
79716;DHT22;69209;51.420;5.400;2023-05-07T11:40:06;23.80;64.20
79716;DHT22;69209;51.420;5.400;2023-05-07T11:42:34;23.80;64.30
79716;DHT22;69209;51.420;5.400;2023-05-07T11:45:00;23.80;64.40
79716;DHT22;69209;51.420;5.400;2023-05-07T11:47:26;23.80;63.80
79716;DHT22;69209;51.420;5.400;2023-05-07T11:49:52;23.70;64.10
79716;DHT22;69209;51.420;5.400;2023-05-07T11:52:19;23.50;63.90
79716;DHT22;69209;51.420;5.400;2023-05-07T11:54:51;23.30;64.90
79716;DHT22;69209;51.420;5.400;2023-05-07T11:57:17;23.20;65.10
79716;DHT22;69209;51.420;5.400;2023-05-07T11:59:43;23.10;65.20
79716;DHT22;69209;51.420;5.400;2023-05-07T12:02:16;22.90;66.40
79716;DHT22;69209;51.420;5.400;2023-05-07T12:04:42;22.90;66.90
79716;DHT22;69209;51.420;5.400;2023-05-07T12:07:11;22.70;66.70
79716;DHT22;69209;51.420;5.400;2023-05-07T12:09:37;22.70;67.60
79716;DHT22;69209;51.420;5.400;2023-05-07T12:12:03;22.50;67.70
79716;DHT22;69209;51.420;5.400;2023-05-07T12:14:28;22.50;68.20
79716;DHT22;69209;51.420;5.400;2023-05-07T12:16:54;22.60;68.00
79716;DHT22;69209;51.420;5.400;2023-05-07T12:19:20;22.80;68.10
79716;DHT22;69209;51.420;5.400;2023-05-07T12:21:46;22.70;68.90
79716;DHT22;69209;51.420;5.400;2023-05-07T12:24:11;22.60;69.20
79716;DHT22;69209;51.420;5.400;2023-05-07T12:26:37;22.50;70.20
79716;DHT22;69209;51.420;5.400;2023-05-07T12:29:03;22.40;71.50
79716;DHT22;69209;51.420;5.400;2023-05-07T12:31:28;22.30;73.10
79716;DHT22;69209;51.420;5.400;2023-05-07T12:33:54;22.10;74.10
79716;DHT22;69209;51.420;5.400;2023-05-07T12:36:19;21.90;75.30
79716;DHT22;69209;51.420;5.400;2023-05-07T12:38:46;21.70;76.20
79716;DHT22;69209;51.420;5.400;2023-05-07T12:41:15;21.60;76.50
79716;DHT22;69209;51.420;5.400;2023-05-07T12:43:42;21.50;77.60
79716;DHT22;69209;51.420;5.400;2023-05-07T12:46:09;21.50;77.90
79716;DHT22;69209;51.420;5.400;2023-05-07T12:48:36;21.50;78.00
79716;DHT22;69209;51.420;5.400;2023-05-07T12:51:01;21.60;77.90
79716;DHT22;69209;51.420;5.400;2023-05-07T12:53:27;21.80;77.60
79716;DHT22;69209;51.420;5.400;2023-05-07T12:55:54;22.00;77.40
79716;DHT22;69209;51.420;5.400;2023-05-07T12:58:21;22.20;76.10
79716;DHT22;69209;51.420;5.400;2023-05-07T13:00:48;22.30;75.70
79716;DHT22;69209;51.420;5.400;2023-05-07T13:03:22;22.30;75.60
79716;DHT22;69209;51.420;5.400;2023-05-07T13:05:49;22.40;75.80
79716;DHT22;69209;51.420;5.400;2023-05-07T13:08:31;22.40;75.90
79716;DHT22;69209;51.420;5.400;2023-05-07T13:11:01;22.50;75.50
79716;DHT22;69209;51.420;5.400;2023-05-07T13:13:34;22.80;74.90
79716;DHT22;69209;51.420;5.400;2023-05-07T13:16:00;23.00;73.70
79716;DHT22;69209;51.420;5.400;2023-05-07T13:18:26;23.30;72.80
79716;DHT22;69209;51.420;5.400;2023-05-07T13:20:52;23.40;72.10
79716;DHT22;69209;51.420;5.400;2023-05-07T13:23:17;23.50;71.90
79716;DHT22;69209;51.420;5.400;2023-05-07T13:25:43;23.30;71.90
79716;DHT22;69209;51.420;5.400;2023-05-07T13:28:08;23.10;72.50
79716;DHT22;69209;51.420;5.400;2023-05-07T13:30:34;23.10;72.50
79716;DHT22;69209;51.420;5.400;2023-05-07T13:33:00;23.10;72.70
79716;DHT22;69209;51.420;5.400;2023-05-07T13:35:25;23.20;72.60
79716;DHT22;69209;51.420;5.400;2023-05-07T13:37:51;23.40;72.40
79716;DHT22;69209;51.420;5.400;2023-05-07T13:40:17;23.60;71.60
79716;DHT22;69209;51.420;5.400;2023-05-07T13:42:43;23.70;71.10
79716;DHT22;69209;51.420;5.400;2023-05-07T13:45:08;23.80;70.50
79716;DHT22;69209;51.420;5.400;2023-05-07T13:47:34;23.90;70.90
79716;DHT22;69209;51.420;5.400;2023-05-07T13:49:59;24.20;70.40
79716;DHT22;69209;51.420;5.400;2023-05-07T13:52:25;24.00;69.50
79716;DHT22;69209;51.420;5.400;2023-05-07T13:54:51;23.90;69.60
79716;DHT22;69209;51.420;5.400;2023-05-07T13:57:17;24.10;68.70
79716;DHT22;69209;51.420;5.400;2023-05-07T13:59:43;24.20;67.80
79716;DHT22;69209;51.420;5.400;2023-05-07T14:02:08;24.20;67.40
79716;DHT22;69209;51.420;5.400;2023-05-07T14:04:34;24.20;67.50
79716;DHT22;69209;51.420;5.400;2023-05-07T14:07:00;24.10;68.20
79716;DHT22;69209;51.420;5.400;2023-05-07T14:09:25;24.00;68.30
79716;DHT22;69209;51.420;5.400;2023-05-07T14:11:50;24.00;69.20
79716;DHT22;69209;51.420;5.400;2023-05-07T14:14:20;23.90;69.90
79716;DHT22;69209;51.420;5.400;2023-05-07T14:16:46;24.00;70.40
79716;DHT22;69209;51.420;5.400;2023-05-07T14:19:11;24.00;70.30
79716;DHT22;69209;51.420;5.400;2023-05-07T14:21:37;24.00;70.00
79716;DHT22;69209;51.420;5.400;2023-05-07T14:24:02;23.90;69.90
79716;DHT22;69209;51.420;5.400;2023-05-07T14:26:28;24.00;70.10
79716;DHT22;69209;51.420;5.400;2023-05-07T14:28:54;24.00;70.70
79716;DHT22;69209;51.420;5.400;2023-05-07T14:31:22;24.00;71.10
79716;DHT22;69209;51.420;5.400;2023-05-07T14:33:48;24.10;70.60
79716;DHT22;69209;51.420;5.400;2023-05-07T14:36:15;24.10;69.90
79716;DHT22;69209;51.420;5.400;2023-05-07T14:38:40;24.10;69.80
79716;DHT22;69209;51.420;5.400;2023-05-07T14:41:06;24.10;69.80
79716;DHT22;69209;51.420;5.400;2023-05-07T14:43:31;24.00;70.50
79716;DHT22;69209;51.420;5.400;2023-05-07T14:45:57;24.00;70.40
79716;DHT22;69209;51.420;5.400;2023-05-07T14:48:22;24.00;71.00
79716;DHT22;69209;51.420;5.400;2023-05-07T14:50:48;23.90;72.10
79716;DHT22;69209;51.420;5.400;2023-05-07T14:53:13;23.90;72.70
79716;DHT22;69209;51.420;5.400;2023-05-07T14:55:39;23.80;72.50
79716;DHT22;69209;51.420;5.400;2023-05-07T14:58:04;23.80;72.40
79716;DHT22;69209;51.420;5.400;2023-05-07T15:00:30;23.80;72.40
79716;DHT22;69209;51.420;5.400;2023-05-07T15:03:01;23.70;72.60
79716;DHT22;69209;51.420;5.400;2023-05-07T15:05:29;23.70;72.70
79716;DHT22;69209;51.420;5.400;2023-05-07T15:07:55;23.70;72.60
79716;DHT22;69209;51.420;5.400;2023-05-07T15:10:21;23.80;72.60
79716;DHT22;69209;51.420;5.400;2023-05-07T15:12:46;23.80;72.40
79716;DHT22;69209;51.420;5.400;2023-05-07T15:15:12;23.80;72.30
79716;DHT22;69209;51.420;5.400;2023-05-07T15:17:37;23.80;72.70
79716;DHT22;69209;51.420;5.400;2023-05-07T15:20:03;23.80;72.60
79716;DHT22;69209;51.420;5.400;2023-05-07T15:22:30;23.80;72.40
79716;DHT22;69209;51.420;5.400;2023-05-07T15:24:55;23.80;72.20
79716;DHT22;69209;51.420;5.400;2023-05-07T15:27:22;23.70;72.00
79716;DHT22;69209;51.420;5.400;2023-05-07T15:29:47;23.80;71.50
79716;DHT22;69209;51.420;5.400;2023-05-07T15:32:13;23.80;71.20
79716;DHT22;69209;51.420;5.400;2023-05-07T15:34:38;23.90;71.10